sensor_id;sensor_type;location;lat;lon;timestamp;P1;durP1;ratioP1;P2;durP2;ratioP2
38693;SDS011;24447;43.460;25.744;2023-05-27T00:02:21;16.52;;;6.07;;
38693;SDS011;24447;43.460;25.744;2023-05-27T00:04:47;15.73;;;6.55;;
38693;SDS011;24447;43.460;25.744;2023-05-27T00:07:13;18.23;;;7.00;;
38693;SDS011;24447;43.460;25.744;2023-05-27T00:09:39;16.02;;;6.40;;
38693;SDS011;24447;43.460;25.744;2023-05-27T00:12:05;14.15;;;5.70;;
38693;SDS011;24447;43.460;25.744;2023-05-27T00:14:31;13.85;;;5.82;;
38693;SDS011;24447;43.460;25.744;2023-05-27T00:16:57;16.77;;;6.05;;
38693;SDS011;24447;43.460;25.744;2023-05-27T00:19:22;14.00;;;6.22;;
38693;SDS011;24447;43.460;25.744;2023-05-27T00:21:49;15.57;;;6.13;;
38693;SDS011;24447;43.460;25.744;2023-05-27T00:24:18;17.95;;;6.43;;
38693;SDS011;24447;43.460;25.744;2023-05-27T00:26:45;14.98;;;5.95;;
38693;SDS011;24447;43.460;25.744;2023-05-27T00:29:11;14.02;;;5.97;;
38693;SDS011;24447;43.460;25.744;2023-05-27T00:31:37;16.77;;;5.70;;
38693;SDS011;24447;43.460;25.744;2023-05-27T00:34:02;18.33;;;5.53;;
38693;SDS011;24447;43.460;25.744;2023-05-27T00:36:29;13.68;;;5.75;;
38693;SDS011;24447;43.460;25.744;2023-05-27T00:38:58;14.43;;;5.45;;
38693;SDS011;24447;43.460;25.744;2023-05-27T00:41:25;17.05;;;6.45;;
38693;SDS011;24447;43.460;25.744;2023-05-27T00:43:55;14.25;;;5.95;;
38693;SDS011;24447;43.460;25.744;2023-05-27T00:46:21;12.63;;;5.45;;
38693;SDS011;24447;43.460;25.744;2023-05-27T00:48:47;15.05;;;5.68;;
38693;SDS011;24447;43.460;25.744;2023-05-27T00:51:14;16.30;;;5.90;;
38693;SDS011;24447;43.460;25.744;2023-05-27T00:53:40;17.65;;;7.43;;
38693;SDS011;24447;43.460;25.744;2023-05-27T00:56:08;13.43;;;6.18;;
38693;SDS011;24447;43.460;25.744;2023-05-27T00:58:34;15.73;;;5.95;;
38693;SDS011;24447;43.460;25.744;2023-05-27T01:01:01;16.35;;;6.25;;
38693;SDS011;24447;43.460;25.744;2023-05-27T01:03:28;12.93;;;5.63;;
38693;SDS011;24447;43.460;25.744;2023-05-27T01:05:58;23.38;;;8.02;;
38693;SDS011;24447;43.460;25.744;2023-05-27T01:11:44;16.88;;;6.72;;
38693;SDS011;24447;43.460;25.744;2023-05-27T01:14:15;16.17;;;6.00;;
38693;SDS011;24447;43.460;25.744;2023-05-27T01:16:42;14.15;;;5.97;;
38693;SDS011;24447;43.460;25.744;2023-05-27T01:19:25;16.58;;;7.07;;
38693;SDS011;24447;43.460;25.744;2023-05-27T01:21:55;15.63;;;5.15;;
38693;SDS011;24447;43.460;25.744;2023-05-27T01:24:22;13.75;;;5.80;;
38693;SDS011;24447;43.460;25.744;2023-05-27T01:26:48;14.80;;;6.75;;
38693;SDS011;24447;43.460;25.744;2023-05-27T01:29:14;16.98;;;5.97;;
38693;SDS011;24447;43.460;25.744;2023-05-27T01:34:36;20.83;;;7.60;;
38693;SDS011;24447;43.460;25.744;2023-05-27T01:37:08;14.30;;;6.28;;
38693;SDS011;24447;43.460;25.744;2023-05-27T01:39:35;22.23;;;7.05;;
38693;SDS011;24447;43.460;25.744;2023-05-27T01:42:02;14.57;;;6.45;;
38693;SDS011;24447;43.460;25.744;2023-05-27T01:44:29;15.07;;;6.28;;
38693;SDS011;24447;43.460;25.744;2023-05-27T01:46:59;15.30;;;6.63;;
38693;SDS011;24447;43.460;25.744;2023-05-27T01:49:26;19.08;;;7.32;;
38693;SDS011;24447;43.460;25.744;2023-05-27T01:51:52;19.08;;;6.68;;
38693;SDS011;24447;43.460;25.744;2023-05-27T01:54:18;17.83;;;6.80;;
38693;SDS011;24447;43.460;25.744;2023-05-27T01:56:44;14.57;;;6.35;;
38693;SDS011;24447;43.460;25.744;2023-05-27T01:59:10;13.77;;;6.10;;
38693;SDS011;24447;43.460;25.744;2023-05-27T02:01:35;16.00;;;6.32;;
38693;SDS011;24447;43.460;25.744;2023-05-27T02:04:01;17.02;;;6.90;;
38693;SDS011;24447;43.460;25.744;2023-05-27T02:06:28;18.42;;;6.18;;
38693;SDS011;24447;43.460;25.744;2023-05-27T02:08:55;17.90;;;7.07;;
38693;SDS011;24447;43.460;25.744;2023-05-27T02:11:21;14.77;;;6.53;;
38693;SDS011;24447;43.460;25.744;2023-05-27T02:13:47;21.73;;;6.57;;
38693;SDS011;24447;43.460;25.744;2023-05-27T02:16:13;16.67;;;6.55;;
38693;SDS011;24447;43.460;25.744;2023-05-27T02:18:39;17.90;;;6.57;;
38693;SDS011;24447;43.460;25.744;2023-05-27T02:21:06;19.00;;;6.57;;
38693;SDS011;24447;43.460;25.744;2023-05-27T02:23:32;13.57;;;5.97;;
38693;SDS011;24447;43.460;25.744;2023-05-27T02:25:58;16.52;;;6.28;;
38693;SDS011;24447;43.460;25.744;2023-05-27T02:28:25;17.35;;;5.97;;
38693;SDS011;24447;43.460;25.744;2023-05-27T02:30:52;13.70;;;6.32;;
38693;SDS011;24447;43.460;25.744;2023-05-27T02:33:18;14.40;;;6.05;;
38693;SDS011;24447;43.460;25.744;2023-05-27T02:35:44;18.75;;;5.97;;
38693;SDS011;24447;43.460;25.744;2023-05-27T02:38:11;12.48;;;5.45;;
38693;SDS011;24447;43.460;25.744;2023-05-27T02:40:37;14.23;;;6.03;;
38693;SDS011;24447;43.460;25.744;2023-05-27T02:43:03;17.65;;;6.53;;
38693;SDS011;24447;43.460;25.744;2023-05-27T02:45:29;15.13;;;6.20;;
38693;SDS011;24447;43.460;25.744;2023-05-27T02:47:55;16.58;;;6.30;;
38693;SDS011;24447;43.460;25.744;2023-05-27T02:50:21;13.98;;;6.80;;
38693;SDS011;24447;43.460;25.744;2023-05-27T02:52:47;15.18;;;6.93;;
38693;SDS011;24447;43.460;25.744;2023-05-27T02:55:13;13.43;;;6.07;;
38693;SDS011;24447;43.460;25.744;2023-05-27T02:57:39;15.57;;;6.68;;
38693;SDS011;24447;43.460;25.744;2023-05-27T03:00:05;17.67;;;7.10;;
38693;SDS011;24447;43.460;25.744;2023-05-27T03:02:34;19.35;;;6.53;;
38693;SDS011;24447;43.460;25.744;2023-05-27T03:05:00;15.63;;;5.97;;
38693;SDS011;24447;43.460;25.744;2023-05-27T03:07:26;12.90;;;5.25;;
38693;SDS011;24447;43.460;25.744;2023-05-27T03:09:54;11.38;;;5.63;;
38693;SDS011;24447;43.460;25.744;2023-05-27T03:12:21;13.40;;;5.65;;
38693;SDS011;24447;43.460;25.744;2023-05-27T03:14:47;15.15;;;6.10;;
38693;SDS011;24447;43.460;25.744;2023-05-27T03:17:14;14.23;;;5.50;;
38693;SDS011;24447;43.460;25.744;2023-05-27T03:19:40;13.10;;;5.32;;
38693;SDS011;24447;43.460;25.744;2023-05-27T03:22:06;13.30;;;5.53;;
38693;SDS011;24447;43.460;25.744;2023-05-27T03:24:34;13.32;;;5.72;;
38693;SDS011;24447;43.460;25.744;2023-05-27T03:27:00;19.33;;;7.28;;
38693;SDS011;24447;43.460;25.744;2023-05-27T03:29:26;16.67;;;7.10;;
38693;SDS011;24447;43.460;25.744;2023-05-27T03:31:52;17.80;;;6.05;;
38693;SDS011;24447;43.460;25.744;2023-05-27T03:34:18;17.42;;;8.00;;
38693;SDS011;24447;43.460;25.744;2023-05-27T03:36:44;11.80;;;5.43;;
38693;SDS011;24447;43.460;25.744;2023-05-27T03:39:14;17.23;;;5.82;;
38693;SDS011;24447;43.460;25.744;2023-05-27T03:41:41;13.73;;;5.80;;
38693;SDS011;24447;43.460;25.744;2023-05-27T03:44:07;16.70;;;5.93;;
38693;SDS011;24447;43.460;25.744;2023-05-27T03:46:34;13.05;;;5.93;;
38693;SDS011;24447;43.460;25.744;2023-05-27T03:49:00;12.32;;;5.65;;
38693;SDS011;24447;43.460;25.744;2023-05-27T03:51:26;9.63;;;5.00;;
38693;SDS011;24447;43.460;25.744;2023-05-27T03:53:52;12.32;;;5.75;;
38693;SDS011;24447;43.460;25.744;2023-05-27T03:56:18;19.63;;;6.10;;
38693;SDS011;24447;43.460;25.744;2023-05-27T03:58:44;12.52;;;5.68;;
38693;SDS011;24447;43.460;25.744;2023-05-27T04:01:10;11.85;;;6.00;;
38693;SDS011;24447;43.460;25.744;2023-05-27T04:03:36;13.80;;;6.10;;
38693;SDS011;24447;43.460;25.744;2023-05-27T04:06:04;17.30;;;6.25;;
38693;SDS011;24447;43.460;25.744;2023-05-27T04:08:30;15.90;;;6.55;;
38693;SDS011;24447;43.460;25.744;2023-05-27T04:10:56;15.93;;;6.45;;
38693;SDS011;24447;43.460;25.744;2023-05-27T04:13:22;14.50;;;6.63;;
38693;SDS011;24447;43.460;25.744;2023-05-27T04:15:48;16.90;;;6.38;;
38693;SDS011;24447;43.460;25.744;2023-05-27T04:18:14;17.30;;;6.78;;
38693;SDS011;24447;43.460;25.744;2023-05-27T04:20:41;12.65;;;6.32;;
38693;SDS011;24447;43.460;25.744;2023-05-27T04:23:09;14.43;;;6.18;;
38693;SDS011;24447;43.460;25.744;2023-05-27T04:25:35;20.45;;;6.78;;
38693;SDS011;24447;43.460;25.744;2023-05-27T04:28:02;15.40;;;6.28;;
38693;SDS011;24447;43.460;25.744;2023-05-27T04:30:32;15.40;;;6.68;;
38693;SDS011;24447;43.460;25.744;2023-05-27T04:32:59;19.77;;;7.32;;
38693;SDS011;24447;43.460;25.744;2023-05-27T04:35:26;19.05;;;7.45;;
38693;SDS011;24447;43.460;25.744;2023-05-27T04:37:52;20.35;;;8.13;;
38693;SDS011;24447;43.460;25.744;2023-05-27T04:40:18;19.33;;;7.57;;
38693;SDS011;24447;43.460;25.744;2023-05-27T04:42:44;20.48;;;7.97;;
38693;SDS011;24447;43.460;25.744;2023-05-27T04:45:10;15.65;;;6.32;;
38693;SDS011;24447;43.460;25.744;2023-05-27T04:47:36;15.15;;;6.70;;
38693;SDS011;24447;43.460;25.744;2023-05-27T04:50:03;16.48;;;7.35;;
38693;SDS011;24447;43.460;25.744;2023-05-27T04:52:30;17.25;;;6.50;;
38693;SDS011;24447;43.460;25.744;2023-05-27T04:55:02;16.23;;;6.38;;
38693;SDS011;24447;43.460;25.744;2023-05-27T04:57:29;14.48;;;6.25;;
38693;SDS011;24447;43.460;25.744;2023-05-27T04:59:55;17.48;;;6.80;;
38693;SDS011;24447;43.460;25.744;2023-05-27T05:02:44;16.90;;;6.30;;
38693;SDS011;24447;43.460;25.744;2023-05-27T05:05:12;16.23;;;7.13;;
38693;SDS011;24447;43.460;25.744;2023-05-27T05:07:39;17.25;;;7.53;;
38693;SDS011;24447;43.460;25.744;2023-05-27T05:10:06;17.50;;;6.97;;
38693;SDS011;24447;43.460;25.744;2023-05-27T05:12:33;15.40;;;6.53;;
38693;SDS011;24447;43.460;25.744;2023-05-27T05:15:00;12.10;;;6.50;;
38693;SDS011;24447;43.460;25.744;2023-05-27T05:17:26;14.48;;;6.53;;
38693;SDS011;24447;43.460;25.744;2023-05-27T05:19:52;15.73;;;6.60;;
38693;SDS011;24447;43.460;25.744;2023-05-27T05:22:18;14.32;;;5.53;;
38693;SDS011;24447;43.460;25.744;2023-05-27T05:24:45;18.98;;;5.97;;
38693;SDS011;24447;43.460;25.744;2023-05-27T05:27:12;15.75;;;6.25;;
38693;SDS011;24447;43.460;25.744;2023-05-27T05:29:38;13.35;;;5.53;;
38693;SDS011;24447;43.460;25.744;2023-05-27T05:32:04;13.30;;;5.30;;
38693;SDS011;24447;43.460;25.744;2023-05-27T05:34:30;16.58;;;6.35;;
38693;SDS011;24447;43.460;25.744;2023-05-27T05:36:56;15.63;;;6.05;;
38693;SDS011;24447;43.460;25.744;2023-05-27T05:39:22;11.32;;;5.28;;
38693;SDS011;24447;43.460;25.744;2023-05-27T05:41:48;13.65;;;5.45;;
38693;SDS011;24447;43.460;25.744;2023-05-27T05:44:14;13.13;;;5.93;;
38693;SDS011;24447;43.460;25.744;2023-05-27T05:46:41;11.98;;;5.85;;
38693;SDS011;24447;43.460;25.744;2023-05-27T05:49:07;14.40;;;6.22;;
38693;SDS011;24447;43.460;25.744;2023-05-27T05:51:33;14.07;;;5.90;;
38693;SDS011;24447;43.460;25.744;2023-05-27T05:54:00;11.13;;;5.53;;
38693;SDS011;24447;43.460;25.744;2023-05-27T05:56:26;13.65;;;5.80;;
38693;SDS011;24447;43.460;25.744;2023-05-27T05:58:52;12.52;;;5.72;;
38693;SDS011;24447;43.460;25.744;2023-05-27T06:01:18;13.18;;;5.97;;
38693;SDS011;24447;43.460;25.744;2023-05-27T06:03:44;11.60;;;5.18;;
38693;SDS011;24447;43.460;25.744;2023-05-27T06:06:10;9.15;;;5.13;;
38693;SDS011;24447;43.460;25.744;2023-05-27T06:08:36;13.30;;;5.50;;
38693;SDS011;24447;43.460;25.744;2023-05-27T06:11:02;12.20;;;5.47;;
38693;SDS011;24447;43.460;25.744;2023-05-27T06:13:28;12.82;;;6.28;;
38693;SDS011;24447;43.460;25.744;2023-05-27T06:15:54;13.05;;;5.88;;
38693;SDS011;24447;43.460;25.744;2023-05-27T06:18:23;16.73;;;6.88;;
38693;SDS011;24447;43.460;25.744;2023-05-27T06:20:49;19.55;;;8.23;;
38693;SDS011;24447;43.460;25.744;2023-05-27T06:23:15;22.63;;;7.70;;
38693;SDS011;24447;43.460;25.744;2023-05-27T06:25:41;18.08;;;8.20;;
38693;SDS011;24447;43.460;25.744;2023-05-27T06:28:06;16.98;;;7.10;;
38693;SDS011;24447;43.460;25.744;2023-05-27T06:30:32;19.35;;;7.43;;
38693;SDS011;24447;43.460;25.744;2023-05-27T06:32:58;18.42;;;6.30;;
38693;SDS011;24447;43.460;25.744;2023-05-27T06:35:25;18.27;;;7.68;;
38693;SDS011;24447;43.460;25.744;2023-05-27T06:37:50;20.98;;;7.82;;
38693;SDS011;24447;43.460;25.744;2023-05-27T06:40:16;22.40;;;8.17;;
38693;SDS011;24447;43.460;25.744;2023-05-27T06:42:42;19.40;;;6.43;;
38693;SDS011;24447;43.460;25.744;2023-05-27T06:45:10;17.08;;;6.85;;
38693;SDS011;24447;43.460;25.744;2023-05-27T06:47:36;18.30;;;7.07;;
38693;SDS011;24447;43.460;25.744;2023-05-27T06:50:02;15.18;;;6.18;;
38693;SDS011;24447;43.460;25.744;2023-05-27T06:52:28;10.05;;;5.22;;
38693;SDS011;24447;43.460;25.744;2023-05-27T06:54:54;17.35;;;7.07;;
38693;SDS011;24447;43.460;25.744;2023-05-27T06:57:20;20.27;;;8.25;;
38693;SDS011;24447;43.460;25.744;2023-05-27T06:59:46;13.68;;;6.22;;
38693;SDS011;24447;43.460;25.744;2023-05-27T07:02:11;14.13;;;5.75;;
38693;SDS011;24447;43.460;25.744;2023-05-27T07:04:37;16.50;;;6.78;;
38693;SDS011;24447;43.460;25.744;2023-05-27T07:07:03;16.15;;;6.60;;
38693;SDS011;24447;43.460;25.744;2023-05-27T07:09:29;13.88;;;6.70;;
38693;SDS011;24447;43.460;25.744;2023-05-27T07:11:55;16.88;;;6.75;;
38693;SDS011;24447;43.460;25.744;2023-05-27T07:14:21;18.92;;;7.55;;
38693;SDS011;24447;43.460;25.744;2023-05-27T07:16:47;16.45;;;7.60;;
38693;SDS011;24447;43.460;25.744;2023-05-27T07:19:13;15.93;;;5.95;;
38693;SDS011;24447;43.460;25.744;2023-05-27T07:21:39;16.38;;;7.03;;
38693;SDS011;24447;43.460;25.744;2023-05-27T07:24:04;17.50;;;7.00;;
38693;SDS011;24447;43.460;25.744;2023-05-27T07:26:31;12.82;;;6.30;;
38693;SDS011;24447;43.460;25.744;2023-05-27T07:28:57;15.90;;;6.32;;
38693;SDS011;24447;43.460;25.744;2023-05-27T07:31:25;16.60;;;7.20;;
38693;SDS011;24447;43.460;25.744;2023-05-27T07:33:51;17.70;;;8.07;;
38693;SDS011;24447;43.460;25.744;2023-05-27T07:36:17;15.35;;;7.30;;
38693;SDS011;24447;43.460;25.744;2023-05-27T07:38:43;29.90;;;11.85;;
38693;SDS011;24447;43.460;25.744;2023-05-27T07:41:09;25.08;;;11.93;;
38693;SDS011;24447;43.460;25.744;2023-05-27T07:43:36;17.95;;;7.93;;
38693;SDS011;24447;43.460;25.744;2023-05-27T07:46:02;16.60;;;7.82;;
38693;SDS011;24447;43.460;25.744;2023-05-27T07:48:28;23.70;;;11.60;;
38693;SDS011;24447;43.460;25.744;2023-05-27T07:50:54;19.55;;;8.73;;
38693;SDS011;24447;43.460;25.744;2023-05-27T07:53:21;18.08;;;7.40;;
38693;SDS011;24447;43.460;25.744;2023-05-27T07:55:47;19.23;;;8.43;;
38693;SDS011;24447;43.460;25.744;2023-05-27T07:58:13;18.75;;;8.52;;
38693;SDS011;24447;43.460;25.744;2023-05-27T08:00:39;15.93;;;7.05;;
38693;SDS011;24447;43.460;25.744;2023-05-27T08:03:05;20.40;;;8.27;;
38693;SDS011;24447;43.460;25.744;2023-05-27T08:05:31;20.50;;;7.53;;
38693;SDS011;24447;43.460;25.744;2023-05-27T08:07:57;18.67;;;7.88;;
38693;SDS011;24447;43.460;25.744;2023-05-27T08:10:24;16.55;;;7.40;;
38693;SDS011;24447;43.460;25.744;2023-05-27T08:12:50;15.68;;;7.88;;
38693;SDS011;24447;43.460;25.744;2023-05-27T08:15:16;21.05;;;8.63;;
38693;SDS011;24447;43.460;25.744;2023-05-27T08:17:42;18.90;;;7.97;;
38693;SDS011;24447;43.460;25.744;2023-05-27T08:20:09;18.95;;;8.32;;
38693;SDS011;24447;43.460;25.744;2023-05-27T08:22:36;18.63;;;8.80;;
38693;SDS011;24447;43.460;25.744;2023-05-27T08:25:02;19.80;;;8.82;;
38693;SDS011;24447;43.460;25.744;2023-05-27T08:27:44;22.00;;;9.27;;
38693;SDS011;24447;43.460;25.744;2023-05-27T08:30:18;21.75;;;9.60;;
38693;SDS011;24447;43.460;25.744;2023-05-27T08:32:44;19.75;;;9.88;;
38693;SDS011;24447;43.460;25.744;2023-05-27T08:35:11;20.17;;;8.88;;
38693;SDS011;24447;43.460;25.744;2023-05-27T08:37:38;22.45;;;9.57;;
38693;SDS011;24447;43.460;25.744;2023-05-27T08:40:06;20.50;;;8.68;;
38693;SDS011;24447;43.460;25.744;2023-05-27T08:42:33;19.80;;;8.82;;
38693;SDS011;24447;43.460;25.744;2023-05-27T08:45:00;21.65;;;9.80;;
38693;SDS011;24447;43.460;25.744;2023-05-27T08:47:27;20.38;;;8.55;;
38693;SDS011;24447;43.460;25.744;2023-05-27T08:49:55;18.92;;;8.40;;
38693;SDS011;24447;43.460;25.744;2023-05-27T08:52:23;16.52;;;9.18;;
38693;SDS011;24447;43.460;25.744;2023-05-27T08:54:50;16.95;;;7.82;;
38693;SDS011;24447;43.460;25.744;2023-05-27T08:57:17;17.10;;;7.88;;
38693;SDS011;24447;43.460;25.744;2023-05-27T08:59:49;19.33;;;8.23;;
38693;SDS011;24447;43.460;25.744;2023-05-27T09:02:16;17.45;;;8.25;;
38693;SDS011;24447;43.460;25.744;2023-05-27T09:04:44;17.70;;;7.82;;
38693;SDS011;24447;43.460;25.744;2023-05-27T09:07:11;18.60;;;8.45;;
38693;SDS011;24447;43.460;25.744;2023-05-27T09:09:38;15.15;;;7.28;;
38693;SDS011;24447;43.460;25.744;2023-05-27T09:12:04;16.08;;;7.55;;
38693;SDS011;24447;43.460;25.744;2023-05-27T09:14:34;18.50;;;8.95;;
38693;SDS011;24447;43.460;25.744;2023-05-27T09:17:06;16.30;;;7.45;;
38693;SDS011;24447;43.460;25.744;2023-05-27T09:19:34;21.75;;;9.90;;
38693;SDS011;24447;43.460;25.744;2023-05-27T09:22:00;20.95;;;7.88;;
38693;SDS011;24447;43.460;25.744;2023-05-27T09:24:27;18.75;;;8.65;;
38693;SDS011;24447;43.460;25.744;2023-05-27T09:26:55;15.32;;;8.05;;
38693;SDS011;24447;43.460;25.744;2023-05-27T09:29:25;21.35;;;8.70;;
38693;SDS011;24447;43.460;25.744;2023-05-27T09:31:54;19.45;;;8.52;;
38693;SDS011;24447;43.460;25.744;2023-05-27T09:34:21;20.53;;;8.20;;
38693;SDS011;24447;43.460;25.744;2023-05-27T09:36:47;18.52;;;9.02;;
38693;SDS011;24447;43.460;25.744;2023-05-27T09:39:14;15.40;;;7.57;;
38693;SDS011;24447;43.460;25.744;2023-05-27T09:41:41;15.50;;;7.18;;
38693;SDS011;24447;43.460;25.744;2023-05-27T09:44:07;16.90;;;7.97;;
38693;SDS011;24447;43.460;25.744;2023-05-27T09:46:34;19.80;;;8.88;;
38693;SDS011;24447;43.460;25.744;2023-05-27T09:49:01;14.43;;;6.32;;
38693;SDS011;24447;43.460;25.744;2023-05-27T09:51:29;14.93;;;7.20;;
38693;SDS011;24447;43.460;25.744;2023-05-27T09:53:57;19.17;;;7.97;;
38693;SDS011;24447;43.460;25.744;2023-05-27T09:56:24;16.13;;;7.93;;
38693;SDS011;24447;43.460;25.744;2023-05-27T09:58:54;13.05;;;6.47;;
38693;SDS011;24447;43.460;25.744;2023-05-27T10:01:27;20.92;;;7.80;;
38693;SDS011;24447;43.460;25.744;2023-05-27T10:03:54;18.92;;;7.47;;
38693;SDS011;24447;43.460;25.744;2023-05-27T10:06:24;17.23;;;7.70;;
38693;SDS011;24447;43.460;25.744;2023-05-27T10:08:54;15.40;;;7.80;;
38693;SDS011;24447;43.460;25.744;2023-05-27T10:11:20;17.05;;;8.32;;
38693;SDS011;24447;43.460;25.744;2023-05-27T10:13:46;18.45;;;8.30;;
38693;SDS011;24447;43.460;25.744;2023-05-27T10:16:19;16.15;;;8.57;;
38693;SDS011;24447;43.460;25.744;2023-05-27T10:18:46;15.82;;;7.57;;
38693;SDS011;24447;43.460;25.744;2023-05-27T10:21:18;13.68;;;7.38;;
38693;SDS011;24447;43.460;25.744;2023-05-27T10:23:58;13.23;;;6.93;;
38693;SDS011;24447;43.460;25.744;2023-05-27T10:26:44;18.13;;;7.88;;
38693;SDS011;24447;43.460;25.744;2023-05-27T10:31:45;16.25;;;7.00;;
38693;SDS011;24447;43.460;25.744;2023-05-27T10:34:12;12.43;;;5.78;;
38693;SDS011;24447;43.460;25.744;2023-05-27T10:36:39;11.38;;;6.70;;
38693;SDS011;24447;43.460;25.744;2023-05-27T10:41:53;12.82;;;6.88;;
38693;SDS011;24447;43.460;25.744;2023-05-27T10:46:58;12.77;;;5.63;;
38693;SDS011;24447;43.460;25.744;2023-05-27T10:49:26;10.82;;;6.10;;
38693;SDS011;24447;43.460;25.744;2023-05-27T10:52:09;8.85;;;5.78;;
38693;SDS011;24447;43.460;25.744;2023-05-27T10:54:42;13.75;;;6.45;;
38693;SDS011;24447;43.460;25.744;2023-05-27T10:57:11;16.15;;;7.13;;
38693;SDS011;24447;43.460;25.744;2023-05-27T11:02:11;15.07;;;7.20;;
38693;SDS011;24447;43.460;25.744;2023-05-27T11:04:37;15.68;;;7.05;;
38693;SDS011;24447;43.460;25.744;2023-05-27T11:07:03;12.05;;;6.22;;
38693;SDS011;24447;43.460;25.744;2023-05-27T11:09:30;13.88;;;6.47;;
38693;SDS011;24447;43.460;25.744;2023-05-27T11:12:16;16.17;;;6.68;;
38693;SDS011;24447;43.460;25.744;2023-05-27T11:14:46;10.02;;;5.53;;
38693;SDS011;24447;43.460;25.744;2023-05-27T11:17:14;9.63;;;5.40;;
38693;SDS011;24447;43.460;25.744;2023-05-27T11:19:40;12.55;;;5.82;;
38693;SDS011;24447;43.460;25.744;2023-05-27T11:22:07;9.63;;;5.22;;
38693;SDS011;24447;43.460;25.744;2023-05-27T11:24:34;8.45;;;4.85;;
38693;SDS011;24447;43.460;25.744;2023-05-27T11:27:14;11.32;;;4.78;;
38693;SDS011;24447;43.460;25.744;2023-05-27T11:29:48;10.68;;;5.65;;
38693;SDS011;24447;43.460;25.744;2023-05-27T11:32:19;9.48;;;5.18;;
38693;SDS011;24447;43.460;25.744;2023-05-27T11:34:46;8.30;;;4.70;;
38693;SDS011;24447;43.460;25.744;2023-05-27T11:37:12;12.57;;;5.25;;
38693;SDS011;24447;43.460;25.744;2023-05-27T11:39:48;9.65;;;4.72;;
38693;SDS011;24447;43.460;25.744;2023-05-27T11:42:19;13.32;;;5.63;;
38693;SDS011;24447;43.460;25.744;2023-05-27T11:44:49;13.10;;;5.30;;
38693;SDS011;24447;43.460;25.744;2023-05-27T11:47:16;9.82;;;4.78;;
38693;SDS011;24447;43.460;25.744;2023-05-27T11:49:42;9.93;;;4.82;;
38693;SDS011;24447;43.460;25.744;2023-05-27T11:52:10;10.40;;;4.53;;
38693;SDS011;24447;43.460;25.744;2023-05-27T11:54:37;8.63;;;4.78;;
38693;SDS011;24447;43.460;25.744;2023-05-27T11:57:03;9.82;;;4.55;;
38693;SDS011;24447;43.460;25.744;2023-05-27T11:59:35;11.43;;;5.43;;
38693;SDS011;24447;43.460;25.744;2023-05-27T12:02:01;13.00;;;4.80;;
38693;SDS011;24447;43.460;25.744;2023-05-27T12:04:29;12.88;;;4.47;;
38693;SDS011;24447;43.460;25.744;2023-05-27T12:06:55;11.13;;;5.05;;
38693;SDS011;24447;43.460;25.744;2023-05-27T12:09:23;10.68;;;5.07;;
38693;SDS011;24447;43.460;25.744;2023-05-27T12:11:50;9.18;;;4.85;;
38693;SDS011;24447;43.460;25.744;2023-05-27T12:14:15;9.75;;;4.95;;
38693;SDS011;24447;43.460;25.744;2023-05-27T12:16:41;12.10;;;6.00;;
38693;SDS011;24447;43.460;25.744;2023-05-27T12:19:07;10.30;;;4.60;;
38693;SDS011;24447;43.460;25.744;2023-05-27T12:21:36;8.43;;;4.55;;
38693;SDS011;24447;43.460;25.744;2023-05-27T12:24:03;9.20;;;5.40;;
38693;SDS011;24447;43.460;25.744;2023-05-27T12:26:29;10.05;;;5.28;;
38693;SDS011;24447;43.460;25.744;2023-05-27T12:28:55;10.45;;;5.03;;
38693;SDS011;24447;43.460;25.744;2023-05-27T12:31:21;7.50;;;4.70;;
38693;SDS011;24447;43.460;25.744;2023-05-27T12:33:50;13.45;;;5.00;;
38693;SDS011;24447;43.460;25.744;2023-05-27T12:36:16;13.15;;;5.60;;
38693;SDS011;24447;43.460;25.744;2023-05-27T12:38:44;10.35;;;4.75;;
38693;SDS011;24447;43.460;25.744;2023-05-27T12:41:10;10.82;;;4.80;;
38693;SDS011;24447;43.460;25.744;2023-05-27T12:43:36;10.75;;;4.60;;
38693;SDS011;24447;43.460;25.744;2023-05-27T12:46:02;9.48;;;4.82;;
38693;SDS011;24447;43.460;25.744;2023-05-27T12:48:28;10.50;;;4.20;;
38693;SDS011;24447;43.460;25.744;2023-05-27T12:50:54;12.13;;;5.20;;
38693;SDS011;24447;43.460;25.744;2023-05-27T12:53:20;10.70;;;5.15;;
38693;SDS011;24447;43.460;25.744;2023-05-27T12:55:46;11.55;;;4.70;;
38693;SDS011;24447;43.460;25.744;2023-05-27T12:58:12;9.93;;;4.70;;
38693;SDS011;24447;43.460;25.744;2023-05-27T13:00:38;10.43;;;4.93;;
38693;SDS011;24447;43.460;25.744;2023-05-27T13:03:04;8.75;;;4.88;;
38693;SDS011;24447;43.460;25.744;2023-05-27T13:05:30;10.55;;;4.97;;
38693;SDS011;24447;43.460;25.744;2023-05-27T13:08:00;8.57;;;4.78;;
38693;SDS011;24447;43.460;25.744;2023-05-27T13:10:27;8.77;;;4.80;;
38693;SDS011;24447;43.460;25.744;2023-05-27T13:12:53;12.85;;;5.45;;
38693;SDS011;24447;43.460;25.744;2023-05-27T13:15:20;11.88;;;5.10;;
38693;SDS011;24447;43.460;25.744;2023-05-27T13:17:47;11.43;;;5.00;;
38693;SDS011;24447;43.460;25.744;2023-05-27T13:20:13;12.60;;;5.20;;
38693;SDS011;24447;43.460;25.744;2023-05-27T13:22:40;8.75;;;5.22;;
38693;SDS011;24447;43.460;25.744;2023-05-27T13:25:07;11.23;;;4.63;;
38693;SDS011;24447;43.460;25.744;2023-05-27T13:27:34;12.95;;;5.57;;
38693;SDS011;24447;43.460;25.744;2023-05-27T13:30:00;12.88;;;5.05;;
38693;SDS011;24447;43.460;25.744;2023-05-27T13:32:25;10.07;;;4.65;;
38693;SDS011;24447;43.460;25.744;2023-05-27T13:34:51;9.38;;;4.78;;
38693;SDS011;24447;43.460;25.744;2023-05-27T13:37:19;10.30;;;4.68;;
38693;SDS011;24447;43.460;25.744;2023-05-27T13:39:45;9.38;;;5.15;;
38693;SDS011;24447;43.460;25.744;2023-05-27T13:42:11;10.95;;;4.88;;
38693;SDS011;24447;43.460;25.744;2023-05-27T13:44:38;11.27;;;5.00;;
38693;SDS011;24447;43.460;25.744;2023-05-27T13:47:04;13.02;;;5.20;;
38693;SDS011;24447;43.460;25.744;2023-05-27T13:49:30;15.07;;;6.00;;
38693;SDS011;24447;43.460;25.744;2023-05-27T13:51:57;8.57;;;4.53;;
38693;SDS011;24447;43.460;25.744;2023-05-27T13:54:23;10.75;;;5.13;;
38693;SDS011;24447;43.460;25.744;2023-05-27T13:56:48;13.13;;;5.95;;
38693;SDS011;24447;43.460;25.744;2023-05-27T13:59:15;11.45;;;5.00;;
38693;SDS011;24447;43.460;25.744;2023-05-27T14:01:41;11.77;;;4.63;;
38693;SDS011;24447;43.460;25.744;2023-05-27T14:04:07;11.43;;;5.32;;
38693;SDS011;24447;43.460;25.744;2023-05-27T14:06:33;13.07;;;5.22;;
38693;SDS011;24447;43.460;25.744;2023-05-27T14:09:00;15.43;;;5.57;;
38693;SDS011;24447;43.460;25.744;2023-05-27T14:11:26;10.60;;;5.47;;
38693;SDS011;24447;43.460;25.744;2023-05-27T14:13:52;9.10;;;4.68;;
38693;SDS011;24447;43.460;25.744;2023-05-27T14:16:20;6.75;;;3.28;;
38693;SDS011;24447;43.460;25.744;2023-05-27T14:18:46;6.22;;;3.22;;
38693;SDS011;24447;43.460;25.744;2023-05-27T14:21:12;10.88;;;3.25;;
38693;SDS011;24447;43.460;25.744;2023-05-27T14:23:39;9.38;;;4.20;;
38693;SDS011;24447;43.460;25.744;2023-05-27T14:26:05;17.27;;;5.35;;
38693;SDS011;24447;43.460;25.744;2023-05-27T14:28:31;18.35;;;4.93;;
38693;SDS011;24447;43.460;25.744;2023-05-27T14:30:57;16.73;;;5.57;;
38693;SDS011;24447;43.460;25.744;2023-05-27T14:33:23;15.85;;;6.10;;
38693;SDS011;24447;43.460;25.744;2023-05-27T14:35:50;17.33;;;7.07;;
38693;SDS011;24447;43.460;25.744;2023-05-27T14:38:16;15.43;;;6.10;;
38693;SDS011;24447;43.460;25.744;2023-05-27T14:40:42;13.07;;;6.95;;